sensor_id;sensor_type;location;lat;lon;timestamp;P1;durP1;ratioP1;P2;durP2;ratioP2
38611;SDS011;24368;52.156;20.788;2024-03-23T00:54:28;19.10;;;16.00;;
38611;SDS011;24368;52.156;20.788;2024-03-23T00:59:29;20.50;;;17.80;;
38611;SDS011;24368;52.156;20.788;2024-03-23T01:04:32;20.30;;;18.10;;
38611;SDS011;24368;52.156;20.788;2024-03-23T01:09:34;22.10;;;18.30;;
38611;SDS011;24368;52.156;20.788;2024-03-23T01:14:36;21.60;;;15.70;;
38611;SDS011;24368;52.156;20.788;2024-03-23T01:19:38;21.30;;;16.70;;
38611;SDS011;24368;52.156;20.788;2024-03-23T01:24:58;22.90;;;19.30;;
38611;SDS011;24368;52.156;20.788;2024-03-23T01:30:00;20.80;;;16.70;;
38611;SDS011;24368;52.156;20.788;2024-03-23T01:35:02;23.10;;;18.50;;
38611;SDS011;24368;52.156;20.788;2024-03-23T01:40:05;24.90;;;19.10;;
38611;SDS011;24368;52.156;20.788;2024-03-23T01:45:08;24.90;;;19.20;;
38611;SDS011;24368;52.156;20.788;2024-03-23T01:50:14;21.70;;;18.50;;
38611;SDS011;24368;52.156;20.788;2024-03-23T01:55:15;22.20;;;18.30;;
38611;SDS011;24368;52.156;20.788;2024-03-23T02:00:17;22.10;;;19.70;;
38611;SDS011;24368;52.156;20.788;2024-03-23T02:05:19;26.00;;;20.10;;
38611;SDS011;24368;52.156;20.788;2024-03-23T02:10:21;21.80;;;19.50;;
38611;SDS011;24368;52.156;20.788;2024-03-23T02:15:22;20.60;;;17.90;;
38611;SDS011;24368;52.156;20.788;2024-03-23T02:20:24;23.00;;;19.50;;
38611;SDS011;24368;52.156;20.788;2024-03-23T02:25:26;21.70;;;19.10;;
38611;SDS011;24368;52.156;20.788;2024-03-23T02:30:28;22.80;;;19.90;;
38611;SDS011;24368;52.156;20.788;2024-03-23T02:35:31;21.50;;;17.60;;
38611;SDS011;24368;52.156;20.788;2024-03-23T02:40:32;23.10;;;20.00;;
38611;SDS011;24368;52.156;20.788;2024-03-23T02:45:34;24.40;;;20.50;;
38611;SDS011;24368;52.156;20.788;2024-03-23T02:50:36;22.20;;;19.10;;
38611;SDS011;24368;52.156;20.788;2024-03-23T02:55:38;24.00;;;20.10;;
38611;SDS011;24368;52.156;20.788;2024-03-23T03:00:39;25.60;;;20.60;;
38611;SDS011;24368;52.156;20.788;2024-03-23T03:05:43;23.80;;;20.60;;
38611;SDS011;24368;52.156;20.788;2024-03-23T03:10:45;25.30;;;20.90;;
38611;SDS011;24368;52.156;20.788;2024-03-23T03:16:08;23.30;;;20.20;;
38611;SDS011;24368;52.156;20.788;2024-03-23T03:21:10;23.50;;;19.70;;
38611;SDS011;24368;52.156;20.788;2024-03-23T03:26:12;24.20;;;18.70;;
38611;SDS011;24368;52.156;20.788;2024-03-23T03:31:32;21.30;;;19.00;;
38611;SDS011;24368;52.156;20.788;2024-03-23T03:36:33;20.80;;;17.60;;
38611;SDS011;24368;52.156;20.788;2024-03-23T03:41:35;19.90;;;17.30;;
38611;SDS011;24368;52.156;20.788;2024-03-23T03:46:37;26.80;;;21.50;;
38611;SDS011;24368;52.156;20.788;2024-03-23T03:51:39;24.90;;;19.60;;
38611;SDS011;24368;52.156;20.788;2024-03-23T03:56:41;23.00;;;20.60;;
38611;SDS011;24368;52.156;20.788;2024-03-23T04:02:02;21.00;;;18.70;;
38611;SDS011;24368;52.156;20.788;2024-03-23T04:07:04;18.70;;;16.30;;
38611;SDS011;24368;52.156;20.788;2024-03-23T04:12:06;21.10;;;17.50;;
38611;SDS011;24368;52.156;20.788;2024-03-23T04:17:31;24.80;;;22.10;;
38611;SDS011;24368;52.156;20.788;2024-03-23T04:22:35;27.00;;;22.30;;
38611;SDS011;24368;52.156;20.788;2024-03-23T04:27:37;25.40;;;21.20;;
38611;SDS011;24368;52.156;20.788;2024-03-23T04:32:39;24.80;;;21.20;;
38611;SDS011;24368;52.156;20.788;2024-03-23T04:37:41;24.80;;;22.00;;
38611;SDS011;24368;52.156;20.788;2024-03-23T04:42:43;24.30;;;20.10;;
38611;SDS011;24368;52.156;20.788;2024-03-23T04:47:47;23.00;;;20.50;;
38611;SDS011;24368;52.156;20.788;2024-03-23T04:52:52;27.40;;;22.00;;
38611;SDS011;24368;52.156;20.788;2024-03-23T04:57:54;28.30;;;23.90;;
38611;SDS011;24368;52.156;20.788;2024-03-23T05:02:56;25.50;;;21.30;;
38611;SDS011;24368;52.156;20.788;2024-03-23T05:07:58;25.20;;;21.80;;
38611;SDS011;24368;52.156;20.788;2024-03-23T05:12:59;28.70;;;24.10;;
38611;SDS011;24368;52.156;20.788;2024-03-23T05:18:01;25.60;;;21.50;;
38611;SDS011;24368;52.156;20.788;2024-03-23T05:23:03;27.30;;;22.40;;
38611;SDS011;24368;52.156;20.788;2024-03-23T05:28:05;30.90;;;24.00;;
38611;SDS011;24368;52.156;20.788;2024-03-23T05:33:25;28.00;;;24.30;;
38611;SDS011;24368;52.156;20.788;2024-03-23T05:38:27;28.50;;;25.50;;
38611;SDS011;24368;52.156;20.788;2024-03-23T05:43:29;27.10;;;22.40;;
38611;SDS011;24368;52.156;20.788;2024-03-23T05:48:31;27.90;;;23.80;;
38611;SDS011;24368;52.156;20.788;2024-03-23T05:53:34;27.10;;;23.20;;
38611;SDS011;24368;52.156;20.788;2024-03-23T05:58:36;26.00;;;23.10;;
38611;SDS011;24368;52.156;20.788;2024-03-23T06:03:38;29.10;;;23.70;;
38611;SDS011;24368;52.156;20.788;2024-03-23T06:08:42;25.80;;;23.00;;
38611;SDS011;24368;52.156;20.788;2024-03-23T06:13:44;24.10;;;20.90;;
38611;SDS011;24368;52.156;20.788;2024-03-23T06:18:46;24.80;;;22.10;;
38611;SDS011;24368;52.156;20.788;2024-03-23T06:23:47;23.80;;;20.60;;
38611;SDS011;24368;52.156;20.788;2024-03-23T06:29:11;24.20;;;21.00;;
38611;SDS011;24368;52.156;20.788;2024-03-23T06:34:13;22.40;;;20.00;;
38611;SDS011;24368;52.156;20.788;2024-03-23T06:39:15;26.00;;;20.70;;
38611;SDS011;24368;52.156;20.788;2024-03-23T06:44:18;25.00;;;19.50;;
38611;SDS011;24368;52.156;20.788;2024-03-23T06:49:22;25.20;;;20.30;;
38611;SDS011;24368;52.156;20.788;2024-03-23T06:54:24;24.80;;;22.10;;
38611;SDS011;24368;52.156;20.788;2024-03-23T06:59:27;28.10;;;22.60;;
38611;SDS011;24368;52.156;20.788;2024-03-23T07:04:29;24.40;;;20.10;;
38611;SDS011;24368;52.156;20.788;2024-03-23T07:09:34;25.10;;;20.60;;
38611;SDS011;24368;52.156;20.788;2024-03-23T07:14:37;25.70;;;21.70;;
38611;SDS011;24368;52.156;20.788;2024-03-23T07:19:39;24.70;;;21.30;;
38611;SDS011;24368;52.156;20.788;2024-03-23T07:24:41;23.80;;;20.30;;
38611;SDS011;24368;52.156;20.788;2024-03-23T07:29:45;22.50;;;20.10;;
38611;SDS011;24368;52.156;20.788;2024-03-23T07:34:47;24.80;;;19.60;;
38611;SDS011;24368;52.156;20.788;2024-03-23T07:39:49;19.50;;;17.20;;
38611;SDS011;24368;52.156;20.788;2024-03-23T07:44:54;20.90;;;18.20;;
38611;SDS011;24368;52.156;20.788;2024-03-23T07:49:59;20.70;;;18.20;;
38611;SDS011;24368;52.156;20.788;2024-03-23T07:55:01;19.40;;;16.30;;
38611;SDS011;24368;52.156;20.788;2024-03-23T08:00:22;21.30;;;17.90;;
38611;SDS011;24368;52.156;20.788;2024-03-23T08:05:25;21.40;;;17.90;;
38611;SDS011;24368;52.156;20.788;2024-03-23T08:10:31;21.70;;;17.50;;
38611;SDS011;24368;52.156;20.788;2024-03-23T08:15:56;17.90;;;16.00;;
38611;SDS011;24368;52.156;20.788;2024-03-23T08:21:02;19.80;;;15.90;;
38611;SDS011;24368;52.156;20.788;2024-03-23T08:26:09;17.40;;;15.10;;
38611;SDS011;24368;52.156;20.788;2024-03-23T08:31:16;20.00;;;15.90;;
38611;SDS011;24368;52.156;20.788;2024-03-23T08:36:17;17.70;;;14.70;;
38611;SDS011;24368;52.156;20.788;2024-03-23T08:41:22;18.10;;;13.30;;
38611;SDS011;24368;52.156;20.788;2024-03-23T08:46:27;14.10;;;12.50;;
38611;SDS011;24368;52.156;20.788;2024-03-23T08:51:33;17.70;;;14.70;;
38611;SDS011;24368;52.156;20.788;2024-03-23T08:56:35;15.70;;;13.60;;
38611;SDS011;24368;52.156;20.788;2024-03-23T09:01:39;16.30;;;13.20;;
38611;SDS011;24368;52.156;20.788;2024-03-23T09:06:48;14.00;;;12.50;;
38611;SDS011;24368;52.156;20.788;2024-03-23T09:11:52;13.80;;;12.40;;
38611;SDS011;24368;52.156;20.788;2024-03-23T09:16:54;13.20;;;11.40;;
38611;SDS011;24368;52.156;20.788;2024-03-23T09:22:03;13.90;;;11.70;;
38611;SDS011;24368;52.156;20.788;2024-03-23T09:27:05;14.30;;;12.10;;
38611;SDS011;24368;52.156;20.788;2024-03-23T09:32:07;10.80;;;9.70;;
38611;SDS011;24368;52.156;20.788;2024-03-23T09:37:18;11.10;;;9.80;;
38611;SDS011;24368;52.156;20.788;2024-03-23T09:42:43;10.60;;;9.50;;
38611;SDS011;24368;52.156;20.788;2024-03-23T09:47:51;10.60;;;9.50;;
38611;SDS011;24368;52.156;20.788;2024-03-23T09:53:17;9.60;;;8.60;;
38611;SDS011;24368;52.156;20.788;2024-03-23T09:58:19;11.20;;;9.40;;
38611;SDS011;24368;52.156;20.788;2024-03-23T10:03:21;9.30;;;8.40;;
38611;SDS011;24368;52.156;20.788;2024-03-23T10:08:23;12.20;;;9.70;;
38611;SDS011;24368;52.156;20.788;2024-03-23T10:13:27;10.30;;;9.20;;
38611;SDS011;24368;52.156;20.788;2024-03-23T10:18:41;9.60;;;8.60;;
38611;SDS011;24368;52.156;20.788;2024-03-23T10:23:43;8.60;;;7.70;;
38611;SDS011;24368;52.156;20.788;2024-03-23T10:28:53;8.60;;;7.70;;
38611;SDS011;24368;52.156;20.788;2024-03-23T10:33:55;8.50;;;7.50;;
38611;SDS011;24368;52.156;20.788;2024-03-23T10:38:57;10.20;;;7.80;;
38611;SDS011;24368;52.156;20.788;2024-03-23T10:43:59;8.80;;;7.70;;
38611;SDS011;24368;52.156;20.788;2024-03-23T10:49:03;10.70;;;8.70;;
38611;SDS011;24368;52.156;20.788;2024-03-23T10:54:05;9.20;;;7.90;;
38611;SDS011;24368;52.156;20.788;2024-03-23T10:59:11;8.80;;;7.90;;
38611;SDS011;24368;52.156;20.788;2024-03-23T11:04:34;9.60;;;7.30;;
38611;SDS011;24368;52.156;20.788;2024-03-23T11:15:05;6.70;;;6.00;;
38611;SDS011;24368;52.156;20.788;2024-03-23T11:20:19;8.90;;;6.90;;
38611;SDS011;24368;52.156;20.788;2024-03-23T11:25:37;5.60;;;5.10;;
38611;SDS011;24368;52.156;20.788;2024-03-23T11:30:39;6.90;;;6.20;;
38611;SDS011;24368;52.156;20.788;2024-03-23T11:35:59;6.20;;;5.60;;
38611;SDS011;24368;52.156;20.788;2024-03-23T11:41:04;6.60;;;5.80;;
38611;SDS011;24368;52.156;20.788;2024-03-23T11:46:07;7.40;;;6.50;;
38611;SDS011;24368;52.156;20.788;2024-03-23T11:51:10;7.70;;;6.60;;
38611;SDS011;24368;52.156;20.788;2024-03-23T11:56:13;7.60;;;6.70;;
38611;SDS011;24368;52.156;20.788;2024-03-23T12:01:33;6.60;;;6.00;;
38611;SDS011;24368;52.156;20.788;2024-03-23T12:06:37;7.90;;;7.10;;
38611;SDS011;24368;52.156;20.788;2024-03-23T12:11:40;7.20;;;6.40;;
38611;SDS011;24368;52.156;20.788;2024-03-23T12:16:44;15.00;;;13.50;;
38611;SDS011;24368;52.156;20.788;2024-03-23T12:21:49;7.80;;;7.10;;
38611;SDS011;24368;52.156;20.788;2024-03-23T12:26:51;8.30;;;7.50;;
38611;SDS011;24368;52.156;20.788;2024-03-23T12:31:54;6.70;;;6.10;;
38611;SDS011;24368;52.156;20.788;2024-03-23T12:36:57;5.90;;;5.30;;
38611;SDS011;24368;52.156;20.788;2024-03-23T12:42:17;6.40;;;5.80;;
38611;SDS011;24368;52.156;20.788;2024-03-23T12:47:20;4.90;;;4.40;;
38611;SDS011;24368;52.156;20.788;2024-03-23T12:52:23;5.50;;;4.80;;
38611;SDS011;24368;52.156;20.788;2024-03-23T12:57:31;5.40;;;4.90;;
38611;SDS011;24368;52.156;20.788;2024-03-23T13:02:39;6.10;;;5.50;;
38611;SDS011;24368;52.156;20.788;2024-03-23T13:07:42;6.40;;;5.50;;
38611;SDS011;24368;52.156;20.788;2024-03-23T13:12:45;5.80;;;5.30;;
38611;SDS011;24368;52.156;20.788;2024-03-23T13:23:14;5.20;;;4.70;;
38611;SDS011;24368;52.156;20.788;2024-03-23T13:28:19;5.50;;;5.00;;
38611;SDS011;24368;52.156;20.788;2024-03-23T13:33:36;5.30;;;4.80;;
38611;SDS011;24368;52.156;20.788;2024-03-23T13:38:39;5.70;;;4.80;;
38611;SDS011;24368;52.156;20.788;2024-03-23T13:43:43;4.80;;;4.40;;
38611;SDS011;24368;52.156;20.788;2024-03-23T13:48:46;4.10;;;3.70;;
38611;SDS011;24368;52.156;20.788;2024-03-23T13:54:06;4.70;;;4.10;;
38611;SDS011;24368;52.156;20.788;2024-03-23T13:59:09;6.00;;;4.00;;
38611;SDS011;24368;52.156;20.788;2024-03-23T14:04:12;4.40;;;3.90;;
38611;SDS011;24368;52.156;20.788;2024-03-23T14:09:16;5.40;;;4.50;;
38611;SDS011;24368;52.156;20.788;2024-03-23T14:14:26;4.50;;;4.10;;
38611;SDS011;24368;52.156;20.788;2024-03-23T14:19:29;4.30;;;4.00;;
38611;SDS011;24368;52.156;20.788;2024-03-23T14:24:33;4.60;;;4.00;;
38611;SDS011;24368;52.156;20.788;2024-03-23T14:29:35;4.60;;;4.20;;
38611;SDS011;24368;52.156;20.788;2024-03-23T14:34:45;4.90;;;4.40;;
38611;SDS011;24368;52.156;20.788;2024-03-23T14:40:10;5.40;;;4.80;;
38611;SDS011;24368;52.156;20.788;2024-03-23T14:45:15;5.80;;;5.10;;
38611;SDS011;24368;52.156;20.788;2024-03-23T14:50:19;7.20;;;6.40;;
38611;SDS011;24368;52.156;20.788;2024-03-23T14:55:23;10.90;;;9.80;;
38611;SDS011;24368;52.156;20.788;2024-03-23T15:05:31;12.30;;;11.00;;
38611;SDS011;24368;52.156;20.788;2024-03-23T15:10:33;12.10;;;10.90;;
38611;SDS011;24368;52.156;20.788;2024-03-23T15:15:39;11.10;;;9.90;;
38611;SDS011;24368;52.156;20.788;2024-03-23T15:20:52;14.00;;;12.40;;
38611;SDS011;24368;52.156;20.788;2024-03-23T15:25:58;13.90;;;12.60;;
38611;SDS011;24368;52.156;20.788;2024-03-23T15:31:19;14.20;;;12.80;;
38611;SDS011;24368;52.156;20.788;2024-03-23T15:36:21;14.60;;;13.20;;
38611;SDS011;24368;52.156;20.788;2024-03-23T15:41:23;14.90;;;13.50;;
38611;SDS011;24368;52.156;20.788;2024-03-23T15:46:27;15.60;;;14.00;;
38611;SDS011;24368;52.156;20.788;2024-03-23T15:51:30;11.80;;;10.60;;
38611;SDS011;24368;52.156;20.788;2024-03-23T15:56:38;11.00;;;9.90;;
38611;SDS011;24368;52.156;20.788;2024-03-23T16:01:40;11.90;;;10.60;;
38611;SDS011;24368;52.156;20.788;2024-03-23T16:06:43;9.20;;;8.40;;
38611;SDS011;24368;52.156;20.788;2024-03-23T16:12:03;8.50;;;7.60;;
38611;SDS011;24368;52.156;20.788;2024-03-23T16:17:05;10.00;;;9.00;;
38611;SDS011;24368;52.156;20.788;2024-03-23T16:22:28;8.30;;;7.40;;
38611;SDS011;24368;52.156;20.788;2024-03-23T16:27:37;8.80;;;7.90;;
38611;SDS011;24368;52.156;20.788;2024-03-23T17:21:04;8.60;;;7.80;;
38611;SDS011;24368;52.156;20.788;2024-03-23T17:26:06;6.90;;;6.30;;
38611;SDS011;24368;52.156;20.788;2024-03-23T17:31:14;8.10;;;7.00;;
38611;SDS011;24368;52.156;20.788;2024-03-23T17:36:16;7.80;;;7.10;;
38611;SDS011;24368;52.156;20.788;2024-03-23T17:41:23;8.30;;;6.90;;
38611;SDS011;24368;52.156;20.788;2024-03-23T17:46:29;8.70;;;7.90;;
38611;SDS011;24368;52.156;20.788;2024-03-23T17:51:31;9.10;;;8.20;;
38611;SDS011;24368;52.156;20.788;2024-03-23T17:56:32;9.40;;;8.00;;
38611;SDS011;24368;52.156;20.788;2024-03-23T18:01:52;9.00;;;8.10;;
38611;SDS011;24368;52.156;20.788;2024-03-23T18:11:59;9.30;;;8.40;;
38611;SDS011;24368;52.156;20.788;2024-03-23T18:17:00;9.40;;;8.50;;
38611;SDS011;24368;52.156;20.788;2024-03-23T18:22:01;6.10;;;5.60;;
38611;SDS011;24368;52.156;20.788;2024-03-23T18:27:02;3.70;;;3.40;;
38611;SDS011;24368;52.156;20.788;2024-03-23T18:32:03;3.80;;;3.40;;
38611;SDS011;24368;52.156;20.788;2024-03-23T18:37:05;4.00;;;3.60;;
38611;SDS011;24368;52.156;20.788;2024-03-23T18:42:06;2.60;;;2.40;;
38611;SDS011;24368;52.156;20.788;2024-03-23T18:47:08;4.10;;;1.60;;
38611;SDS011;24368;52.156;20.788;2024-03-23T18:52:09;2.00;;;1.80;;
38611;SDS011;24368;52.156;20.788;2024-03-23T18:57:10;2.10;;;1.60;;
38611;SDS011;24368;52.156;20.788;2024-03-23T19:02:12;1.50;;;1.40;;
38611;SDS011;24368;52.156;20.788;2024-03-23T19:55:13;2.70;;;2.10;;
38611;SDS011;24368;52.156;20.788;2024-03-23T20:00:15;2.10;;;1.70;;
38611;SDS011;24368;52.156;20.788;2024-03-23T20:05:16;2.30;;;1.60;;
38611;SDS011;24368;52.156;20.788;2024-03-23T20:10:20;1.90;;;1.70;;
38611;SDS011;24368;52.156;20.788;2024-03-23T20:15:22;1.80;;;1.70;;
38611;SDS011;24368;52.156;20.788;2024-03-23T20:20:25;2.40;;;1.90;;
38611;SDS011;24368;52.156;20.788;2024-03-23T20:25:27;2.00;;;1.90;;
38611;SDS011;24368;52.156;20.788;2024-03-23T20:30:29;2.10;;;1.80;;
38611;SDS011;24368;52.156;20.788;2024-03-23T20:35:30;2.60;;;2.40;;
38611;SDS011;24368;52.156;20.788;2024-03-23T20:40:31;3.10;;;2.80;;
38611;SDS011;24368;52.156;20.788;2024-03-23T20:45:36;2.70;;;2.50;;
38611;SDS011;24368;52.156;20.788;2024-03-23T20:50:37;2.80;;;2.10;;
38611;SDS011;24368;52.156;20.788;2024-03-23T20:55:39;4.80;;;3.30;;
38611;SDS011;24368;52.156;20.788;2024-03-23T21:00:41;5.30;;;3.30;;
38611;SDS011;24368;52.156;20.788;2024-03-23T21:05:43;2.90;;;2.40;;
38611;SDS011;24368;52.156;20.788;2024-03-23T21:10:50;5.90;;;2.80;;
38611;SDS011;24368;52.156;20.788;2024-03-23T21:15:53;7.00;;;2.70;;
38611;SDS011;24368;52.156;20.788;2024-03-23T21:21:17;2.90;;;2.50;;
38611;SDS011;24368;52.156;20.788;2024-03-23T21:26:19;2.60;;;2.40;;
38611;SDS011;24368;52.156;20.788;2024-03-23T21:31:22;3.80;;;3.30;;
38611;SDS011;24368;52.156;20.788;2024-03-23T21:36:27;5.50;;;3.70;;
38611;SDS011;24368;52.156;20.788;2024-03-23T21:41:30;4.70;;;4.10;;
38611;SDS011;24368;52.156;20.788;2024-03-23T21:46:32;4.60;;;4.10;;
38611;SDS011;24368;52.156;20.788;2024-03-23T21:51:34;4.50;;;3.80;;
38611;SDS011;24368;52.156;20.788;2024-03-23T21:56:37;5.60;;;4.30;;
38611;SDS011;24368;52.156;20.788;2024-03-23T22:01:38;4.90;;;4.30;;
38611;SDS011;24368;52.156;20.788;2024-03-23T22:06:44;4.80;;;4.30;;
38611;SDS011;24368;52.156;20.788;2024-03-23T22:11:45;4.70;;;4.30;;
38611;SDS011;24368;52.156;20.788;2024-03-23T22:16:46;7.60;;;5.30;;
38611;SDS011;24368;52.156;20.788;2024-03-23T22:21:50;5.70;;;4.30;;
38611;SDS011;24368;52.156;20.788;2024-03-23T22:26:52;6.90;;;5.00;;
38611;SDS011;24368;52.156;20.788;2024-03-23T22:32:13;5.80;;;4.50;;
38611;SDS011;24368;52.156;20.788;2024-03-23T22:37:15;6.20;;;4.90;;
